createdAt,value
2023-12-31T00:01:18.888Z,99978.00
2023-12-31T00:03:48.100Z,99969.00
2023-12-31T00:06:18.165Z,99970.00
2023-12-31T00:08:47.747Z,99972.00
2023-12-31T00:11:16.644Z,99973.00
2023-12-31T00:13:45.544Z,99974.00
2023-12-31T00:16:16.384Z,99977.00
2023-12-31T00:18:45.228Z,99970.00
2023-12-31T00:21:14.081Z,99954.00
2023-12-31T00:23:42.839Z,99956.00
2023-12-31T00:26:11.618Z,99959.00
2023-12-31T00:28:40.468Z,99955.00
2023-12-31T00:31:09.293Z,99955.00
2023-12-31T00:33:39.548Z,99945.00
2023-12-31T00:36:08.656Z,99958.00
2023-12-31T00:38:37.423Z,99959.00
2023-12-31T00:41:06.367Z,99951.00
2023-12-31T00:43:35.154Z,99955.00
2023-12-31T00:46:03.999Z,99959.00
2023-12-31T00:48:32.731Z,99955.00
2023-12-31T00:51:05.739Z,99949.00
2023-12-31T00:53:34.578Z,99941.00
2023-12-31T00:56:03.434Z,99952.00
2023-12-31T00:58:32.228Z,99950.00
2023-12-31T01:01:01.005Z,99945.00
2023-12-31T01:03:29.831Z,99950.00
2023-12-31T01:06:06.422Z,99945.00
2023-12-31T01:08:35.325Z,99951.00
2023-12-31T01:11:04.168Z,99942.00
2023-12-31T01:13:32.998Z,99948.00
2023-12-31T01:16:01.852Z,99946.00
2023-12-31T01:18:31.120Z,99938.00
2023-12-31T01:20:59.914Z,99946.00
2023-12-31T01:23:30.078Z,99943.00
2023-12-31T01:25:58.965Z,99940.00
2023-12-31T01:28:28.136Z,99934.00
2023-12-31T01:30:56.963Z,99935.00
2023-12-31T01:33:25.812Z,99932.00
2023-12-31T01:35:55.433Z,99927.00
2023-12-31T01:38:24.208Z,99924.00
2023-12-31T01:40:57.764Z,99926.00
2023-12-31T01:43:26.564Z,99915.00
2023-12-31T01:45:55.316Z,99920.00
2023-12-31T01:48:24.475Z,99912.00
2023-12-31T01:50:53.595Z,99908.00
2023-12-31T01:53:29.514Z,99913.00
2023-12-31T01:56:00.893Z,99913.00
2023-12-31T01:58:29.722Z,99908.00
2023-12-31T02:00:58.737Z,99907.00
2023-12-31T02:03:30.429Z,99904.00
2023-12-31T02:05:59.540Z,99908.00
2023-12-31T02:08:28.426Z,99900.00
2023-12-31T02:10:58.740Z,99896.00
2023-12-31T02:13:27.543Z,99897.00
2023-12-31T02:15:56.330Z,99895.00
2023-12-31T02:18:25.948Z,99895.00
2023-12-31T02:20:54.716Z,99881.00
2023-12-31T02:23:23.800Z,99889.00
2023-12-31T02:26:04.725Z,99877.00
2023-12-31T02:28:33.659Z,99868.00
2023-12-31T02:31:02.503Z,99871.00
2023-12-31T02:33:31.361Z,99859.00
2023-12-31T02:36:00.336Z,99863.00
2023-12-31T02:38:29.234Z,99849.00
2023-12-31T02:40:59.429Z,99859.00
2023-12-31T02:43:28.225Z,99852.00
2023-12-31T02:45:57.100Z,99847.00
2023-12-31T02:48:25.955Z,99841.00
2023-12-31T02:50:54.831Z,99841.00
2023-12-31T02:53:23.615Z,99830.00
2023-12-31T02:55:52.394Z,99834.00
2023-12-31T02:58:22.640Z,99831.00
2023-12-31T03:00:51.409Z,99824.00
2023-12-31T03:03:20.363Z,99828.00
2023-12-31T03:05:49.246Z,99829.00
2023-12-31T03:08:18.113Z,99824.00
2023-12-31T03:10:47.002Z,99806.00
2023-12-31T03:13:17.377Z,99813.00
2023-12-31T03:15:47.656Z,99807.00
2023-12-31T03:18:16.539Z,99802.00
2023-12-31T03:20:46.936Z,99799.00
2023-12-31T03:23:18.096Z,99788.00
2023-12-31T03:25:46.996Z,99789.00
2023-12-31T03:28:15.990Z,99791.00
2023-12-31T03:30:46.243Z,99788.00
2023-12-31T03:33:15.079Z,99779.00
2023-12-31T03:35:44.277Z,99785.00
2023-12-31T03:38:13.002Z,99775.00
2023-12-31T03:40:42.346Z,99765.00
2023-12-31T03:43:11.151Z,99770.00
2023-12-31T03:45:39.940Z,99762.00
2023-12-31T03:48:10.454Z,99759.00
2023-12-31T03:50:40.038Z,99767.00
2023-12-31T03:53:07.801Z,99767.00
2023-12-31T03:55:37.045Z,99762.00
2023-12-31T03:58:07.108Z,99763.00
2023-12-31T04:00:36.499Z,99748.00
2023-12-31T04:03:05.736Z,99748.00
2023-12-31T04:05:36.172Z,99753.00
2023-12-31T04:08:05.236Z,99738.00
2023-12-31T04:10:34.507Z,99735.00
2023-12-31T04:13:03.549Z,99738.00
2023-12-31T04:15:32.553Z,99740.00
2023-12-31T04:18:01.432Z,99743.00
2023-12-31T04:20:30.252Z,99739.00
2023-12-31T04:23:00.488Z,99738.00
2023-12-31T04:25:29.332Z,99736.00
2023-12-31T04:28:00.032Z,99733.00
2023-12-31T04:30:29.056Z,99723.00
2023-12-31T04:32:57.912Z,99718.00
2023-12-31T04:35:26.688Z,99724.00
2023-12-31T04:37:55.515Z,99713.00
2023-12-31T04:40:26.161Z,99704.00
2023-12-31T04:42:54.965Z,99702.00
2023-12-31T04:45:23.723Z,99697.00
2023-12-31T04:47:52.555Z,99697.00
2023-12-31T04:50:21.445Z,99699.00
2023-12-31T04:52:50.420Z,99689.00
2023-12-31T04:55:19.498Z,99688.00
2023-12-31T04:57:50.774Z,99687.00
2023-12-31T05:00:20.464Z,99686.00
2023-12-31T05:02:49.206Z,99670.00
2023-12-31T05:05:18.256Z,99672.00
2023-12-31T05:07:47.080Z,99663.00
2023-12-31T05:10:16.142Z,99662.00
2023-12-31T05:12:44.944Z,99657.00
2023-12-31T05:15:15.257Z,99648.00
2023-12-31T05:17:44.317Z,99647.00
2023-12-31T05:20:13.617Z,99631.00
2023-12-31T05:22:42.350Z,99634.00
2023-12-31T05:25:11.918Z,99646.00
2023-12-31T05:27:40.693Z,99640.00
2023-12-31T05:30:11.741Z,99641.00
2023-12-31T05:32:42.028Z,99630.00
2023-12-31T05:35:11.536Z,99636.00
2023-12-31T05:37:40.925Z,99636.00
2023-12-31T05:40:10.683Z,99639.00
2023-12-31T05:42:39.397Z,99628.00
2023-12-31T05:45:09.131Z,99625.00
2023-12-31T05:47:45.958Z,99633.00
2023-12-31T05:50:17.957Z,99630.00
2023-12-31T05:52:46.950Z,99623.00
2023-12-31T05:55:15.980Z,99628.00
2023-12-31T05:57:44.782Z,99623.00
2023-12-31T06:00:14.687Z,99621.00
2023-12-31T06:02:43.926Z,99620.00
2023-12-31T06:05:13.041Z,99622.00
2023-12-31T06:07:43.193Z,99616.00
2023-12-31T06:10:12.441Z,99614.00
2023-12-31T06:12:41.453Z,99596.00
2023-12-31T06:15:12.471Z,99595.00
2023-12-31T06:17:41.715Z,99601.00
2023-12-31T06:20:11.949Z,99603.00
2023-12-31T06:22:42.459Z,99602.00
2023-12-31T06:25:12.117Z,99593.00
2023-12-31T06:27:41.923Z,99600.00
2023-12-31T06:30:11.400Z,99586.00
2023-12-31T06:32:40.267Z,99593.00
2023-12-31T06:35:09.542Z,99587.00
2023-12-31T06:37:38.334Z,99590.00
2023-12-31T06:40:12.979Z,99586.00
2023-12-31T06:42:42.000Z,99586.00
2023-12-31T06:45:11.267Z,99594.00
2023-12-31T06:47:40.051Z,99590.00
2023-12-31T06:50:11.807Z,99596.00
2023-12-31T06:52:40.596Z,99596.00
2023-12-31T06:55:13.373Z,99597.00
2023-12-31T06:57:42.448Z,99590.00
2023-12-31T07:00:12.204Z,99594.00
2023-12-31T07:02:41.127Z,99593.00
2023-12-31T07:05:10.346Z,99591.00
2023-12-31T07:07:39.470Z,99592.00
2023-12-31T07:10:10.892Z,99592.00
2023-12-31T07:12:39.660Z,99588.00
2023-12-31T07:15:10.292Z,99587.00
2023-12-31T07:17:39.322Z,99578.00
2023-12-31T07:20:09.319Z,99583.00
2023-12-31T07:22:39.445Z,99569.00
2023-12-31T07:25:10.632Z,99573.00
2023-12-31T07:27:39.454Z,99569.00
2023-12-31T07:30:09.858Z,99566.00
2023-12-31T07:32:39.306Z,99561.00
2023-12-31T07:35:09.199Z,99573.00
2023-12-31T07:37:40.132Z,99564.00
2023-12-31T07:40:11.948Z,99563.00
2023-12-31T07:42:40.984Z,99560.00
2023-12-31T07:45:10.726Z,99554.00
2023-12-31T07:47:40.481Z,99556.00
2023-12-31T07:50:09.894Z,99552.00
2023-12-31T07:52:39.420Z,99554.00
2023-12-31T07:55:10.217Z,99545.00
2023-12-31T07:57:40.588Z,99538.00
2023-12-31T08:00:11.374Z,99540.00
2023-12-31T08:02:40.169Z,99539.00
2023-12-31T08:05:09.449Z,99543.00
2023-12-31T08:07:38.216Z,99552.00
2023-12-31T08:10:09.028Z,99547.00
2023-12-31T08:12:39.218Z,99548.00
2023-12-31T08:15:09.232Z,99543.00
2023-12-31T08:17:39.141Z,99547.00
2023-12-31T08:20:08.822Z,99540.00
2023-12-31T08:22:37.676Z,99526.00
2023-12-31T08:25:06.897Z,99536.00
2023-12-31T08:27:35.645Z,99522.00
2023-12-31T08:30:07.200Z,99524.00
2023-12-31T08:32:36.057Z,99521.00
2023-12-31T08:35:05.372Z,99517.00
2023-12-31T08:37:34.163Z,99495.00
2023-12-31T08:40:03.160Z,99504.00
2023-12-31T08:42:31.967Z,99506.00
2023-12-31T08:45:06.353Z,99495.00
2023-12-31T08:47:37.514Z,99494.00
2023-12-31T08:50:10.969Z,99502.00
2023-12-31T08:52:42.846Z,99492.00
2023-12-31T08:55:12.164Z,99497.00
2023-12-31T08:57:45.315Z,99487.00
2023-12-31T09:00:15.368Z,99493.00
2023-12-31T09:02:45.523Z,99483.00
2023-12-31T09:05:14.533Z,99497.00
2023-12-31T09:07:43.601Z,99487.00
2023-12-31T09:10:12.785Z,99492.00
2023-12-31T09:12:41.468Z,99485.00
2023-12-31T09:15:11.096Z,99484.00
2023-12-31T09:17:39.918Z,99483.00
2023-12-31T09:20:10.818Z,99482.00
2023-12-31T09:22:39.904Z,99480.00
2023-12-31T09:25:09.493Z,99475.00
2023-12-31T09:27:38.401Z,99479.00
2023-12-31T09:30:08.404Z,99478.00
2023-12-31T09:32:37.266Z,99462.00
2023-12-31T09:35:06.986Z,99465.00
2023-12-31T09:37:38.013Z,99467.00
2023-12-31T09:40:07.961Z,99454.00
2023-12-31T09:42:48.035Z,99452.00
2023-12-31T09:45:17.936Z,99442.00
2023-12-31T09:47:48.664Z,99450.00
2023-12-31T09:50:19.631Z,99440.00
2023-12-31T09:52:51.178Z,99438.00
2023-12-31T09:55:21.426Z,99431.00
2023-12-31T09:57:51.454Z,99415.00
2023-12-31T10:00:20.740Z,99407.00
2023-12-31T10:02:50.746Z,99403.00
2023-12-31T10:05:22.811Z,99403.00
2023-12-31T10:07:53.870Z,99394.00
2023-12-31T10:10:24.038Z,99399.00
2023-12-31T10:12:52.781Z,99400.00
2023-12-31T10:15:22.174Z,99383.00
2023-12-31T10:17:51.093Z,99387.00
2023-12-31T10:20:22.577Z,99376.00
2023-12-31T10:22:53.142Z,99378.00
2023-12-31T10:25:25.509Z,99358.00
2023-12-31T10:27:54.353Z,99354.00
2023-12-31T10:30:24.296Z,99350.00
2023-12-31T10:32:53.333Z,99350.00
2023-12-31T10:35:23.170Z,99349.00
2023-12-31T10:38:06.246Z,99337.00
2023-12-31T10:40:35.808Z,99323.00
2023-12-31T10:43:10.075Z,99333.00
2023-12-31T10:45:41.888Z,99344.00
2023-12-31T10:48:13.392Z,99330.00
2023-12-31T10:50:46.308Z,99340.00
2023-12-31T10:53:18.929Z,99336.00
2023-12-31T10:55:48.532Z,99339.00
2023-12-31T10:58:18.068Z,99323.00
2023-12-31T11:00:47.680Z,99318.00
2023-12-31T11:03:17.860Z,99319.00
2023-12-31T11:05:47.311Z,99313.00
2023-12-31T11:08:18.968Z,99312.00
2023-12-31T11:10:48.330Z,99297.00
2023-12-31T11:13:20.331Z,99304.00
2023-12-31T11:15:54.826Z,99278.00
2023-12-31T11:18:46.213Z,99277.00
2023-12-31T11:21:25.590Z,99268.00
2023-12-31T11:24:13.071Z,99261.00
2023-12-31T11:26:43.260Z,99255.00
2023-12-31T11:29:14.867Z,99265.00
2023-12-31T11:31:43.939Z,99249.00
2023-12-31T11:34:13.003Z,99251.00
2023-12-31T11:36:43.477Z,99253.00
2023-12-31T11:39:16.646Z,99244.00
2023-12-31T11:41:48.954Z,99244.00
2023-12-31T11:44:35.873Z,99249.00
2023-12-31T11:47:04.762Z,99227.00
2023-12-31T11:49:33.757Z,99224.00
2023-12-31T11:52:03.207Z,99210.00
2023-12-31T11:54:40.427Z,99212.00
2023-12-31T11:57:10.226Z,99199.00
2023-12-31T11:59:40.259Z,99200.00
2023-12-31T12:02:09.675Z,99198.00
2023-12-31T12:04:38.865Z,99188.00
2023-12-31T12:07:07.907Z,99178.00
2023-12-31T12:09:38.677Z,99170.00
2023-12-31T12:12:09.713Z,99158.00
2023-12-31T12:14:38.434Z,99163.00
2023-12-31T12:17:08.453Z,99164.00
2023-12-31T12:19:37.506Z,99152.00
2023-12-31T12:22:07.623Z,99149.00
2023-12-31T12:24:36.930Z,99146.00
2023-12-31T12:27:08.438Z,99140.00
2023-12-31T12:29:39.384Z,99139.00
2023-12-31T12:32:09.301Z,99147.00
2023-12-31T12:34:38.630Z,99139.00
2023-12-31T12:37:07.855Z,99143.00
2023-12-31T12:39:36.602Z,99142.00
2023-12-31T12:42:07.120Z,99136.00
2023-12-31T12:44:37.008Z,99137.00
2023-12-31T12:47:06.369Z,99136.00
2023-12-31T12:49:35.094Z,99122.00
2023-12-31T12:52:03.984Z,99128.00
2023-12-31T12:54:33.007Z,99130.00
2023-12-31T12:57:01.722Z,99129.00
2023-12-31T12:59:31.837Z,99125.00
2023-12-31T13:02:01.469Z,99114.00
2023-12-31T13:04:30.291Z,99104.00
2023-12-31T13:07:00.351Z,99101.00
2023-12-31T13:09:29.118Z,99102.00
2023-12-31T13:11:58.041Z,99086.00
2023-12-31T13:14:26.799Z,99084.00
2023-12-31T13:16:58.218Z,99097.00
2023-12-31T13:19:27.403Z,99088.00
2023-12-31T13:21:58.728Z,99090.00
2023-12-31T13:24:28.067Z,99083.00
2023-12-31T13:27:15.649Z,99073.00
2023-12-31T13:29:49.783Z,99074.00
2023-12-31T13:32:29.686Z,99081.00
2023-12-31T13:34:58.951Z,99074.00
2023-12-31T13:37:44.310Z,99074.00
2023-12-31T13:40:17.206Z,99078.00
2023-12-31T13:42:49.305Z,99078.00
2023-12-31T13:45:56.434Z,99069.00
2023-12-31T13:48:27.137Z,99061.00
2023-12-31T13:50:57.192Z,99064.00
2023-12-31T13:53:29.135Z,99053.00
2023-12-31T13:55:58.169Z,99062.00
2023-12-31T13:58:27.467Z,99056.00
2023-12-31T14:00:56.882Z,99057.00
2023-12-31T14:03:27.853Z,99048.00
2023-12-31T14:05:59.060Z,99054.00
2023-12-31T14:08:28.231Z,99053.00
2023-12-31T14:10:57.459Z,99055.00
2023-12-31T14:13:26.675Z,99054.00
2023-12-31T14:15:58.118Z,99044.00
2023-12-31T14:18:28.722Z,99047.00
2023-12-31T14:20:57.938Z,99053.00
2023-12-31T14:23:26.973Z,99050.00
2023-12-31T14:25:56.164Z,99054.00
2023-12-31T14:28:25.235Z,99037.00
2023-12-31T14:30:54.463Z,99039.00
2023-12-31T14:33:23.838Z,99034.00
2023-12-31T14:35:54.305Z,99033.00
2023-12-31T14:38:23.165Z,99017.00
2023-12-31T14:40:52.446Z,99025.00
2023-12-31T14:43:21.400Z,99022.00
2023-12-31T14:45:53.489Z,99020.00
2023-12-31T14:48:23.504Z,99013.00
2023-12-31T14:50:54.295Z,99011.00
2023-12-31T14:53:23.382Z,99009.00
2023-12-31T14:55:55.158Z,99019.00
2023-12-31T14:58:24.623Z,99013.00
2023-12-31T15:00:53.578Z,99015.00
2023-12-31T15:03:22.891Z,99015.00
2023-12-31T15:05:53.537Z,99013.00
2023-12-31T15:08:22.849Z,99023.00
2023-12-31T15:10:51.917Z,99023.00
2023-12-31T15:13:20.842Z,99024.00
2023-12-31T15:15:49.833Z,99025.00
2023-12-31T15:18:18.756Z,99021.00
2023-12-31T15:20:48.323Z,99024.00
2023-12-31T15:23:20.619Z,99010.00
2023-12-31T15:25:52.196Z,99023.00
2023-12-31T15:28:21.193Z,99025.00
2023-12-31T15:30:50.033Z,99020.00
2023-12-31T15:33:19.492Z,99013.00
2023-12-31T15:35:51.646Z,99012.00
2023-12-31T15:38:21.998Z,99012.00
2023-12-31T15:40:52.254Z,99011.00
2023-12-31T15:43:21.349Z,99022.00
2023-12-31T15:45:50.559Z,99014.00
2023-12-31T15:48:19.576Z,99026.00
2023-12-31T15:50:48.991Z,99035.00
2023-12-31T15:53:17.864Z,99031.00
2023-12-31T15:55:48.237Z,99032.00
2023-12-31T15:58:17.003Z,99043.00
2023-12-31T16:00:46.076Z,99066.00
2023-12-31T16:03:14.959Z,99062.00
2023-12-31T16:05:43.852Z,99065.00
2023-12-31T16:08:12.814Z,99063.00
2023-12-31T16:10:41.673Z,99070.00
2023-12-31T16:13:12.932Z,99069.00
2023-12-31T16:15:41.803Z,99072.00
2023-12-31T16:18:10.772Z,99074.00
2023-12-31T16:20:39.719Z,99088.00
2023-12-31T16:23:08.585Z,99090.00
2023-12-31T16:25:37.713Z,99087.00
2023-12-31T16:28:07.349Z,99084.00
2023-12-31T16:30:37.982Z,99075.00
2023-12-31T16:33:07.137Z,99086.00
2023-12-31T16:35:35.998Z,99083.00
2023-12-31T16:38:04.954Z,99095.00
2023-12-31T16:40:33.987Z,99092.00
2023-12-31T16:43:05.988Z,99092.00
2023-12-31T16:45:36.177Z,99087.00
2023-12-31T16:48:06.439Z,99061.00
2023-12-31T16:50:36.290Z,99054.00
2023-12-31T16:53:05.246Z,99065.00
2023-12-31T16:55:34.093Z,99054.00
2023-12-31T16:58:03.304Z,99065.00
2023-12-31T17:00:32.293Z,99063.00
2023-12-31T17:03:03.366Z,99066.00
2023-12-31T17:05:32.716Z,99065.00
2023-12-31T17:08:01.843Z,99057.00
2023-12-31T17:10:30.724Z,99051.00
2023-12-31T17:13:00.403Z,99074.00
2023-12-31T17:15:29.464Z,99073.00
2023-12-31T17:17:58.391Z,99068.00
2023-12-31T17:20:29.048Z,99072.00
2023-12-31T17:22:57.896Z,99084.00
2023-12-31T17:25:26.855Z,99077.00
2023-12-31T17:27:55.852Z,99078.00
2023-12-31T17:30:24.822Z,99074.00
2023-12-31T17:32:53.698Z,99080.00
2023-12-31T17:35:22.664Z,99088.00
2023-12-31T17:37:53.263Z,99091.00
2023-12-31T17:40:22.093Z,99101.00
2023-12-31T17:42:50.904Z,99125.00
2023-12-31T17:45:19.938Z,99139.00
2023-12-31T17:47:48.933Z,99133.00
2023-12-31T17:50:19.899Z,99133.00
2023-12-31T17:52:52.310Z,99121.00
2023-12-31T17:55:21.084Z,99128.00
2023-12-31T17:57:50.013Z,99123.00
2023-12-31T18:00:19.531Z,99110.00
2023-12-31T18:02:48.264Z,99119.00
2023-12-31T18:05:17.307Z,99113.00
2023-12-31T18:07:46.203Z,99124.00
2023-12-31T18:10:16.562Z,99135.00
2023-12-31T18:12:45.364Z,99132.00
2023-12-31T18:15:14.556Z,99137.00
2023-12-31T18:17:43.395Z,99133.00
2023-12-31T18:20:12.949Z,99133.00
2023-12-31T18:22:41.854Z,99124.00
2023-12-31T18:25:11.221Z,99140.00
2023-12-31T18:27:41.452Z,99137.00
2023-12-31T18:30:19.724Z,99136.00
2023-12-31T18:32:51.952Z,99138.00
2023-12-31T18:35:20.814Z,99134.00
2023-12-31T18:37:49.752Z,99123.00
2023-12-31T18:40:18.815Z,99134.00
2023-12-31T18:42:49.051Z,99138.00
2023-12-31T18:45:17.902Z,99127.00
2023-12-31T18:47:46.757Z,99123.00
2023-12-31T18:50:15.915Z,99128.00
2023-12-31T18:52:44.724Z,99129.00
2023-12-31T18:55:13.905Z,99124.00
2023-12-31T18:57:43.632Z,99139.00
2023-12-31T19:00:16.137Z,99147.00
2023-12-31T19:02:45.090Z,99162.00
2023-12-31T19:05:13.994Z,99153.00
2023-12-31T19:07:43.022Z,99150.00
2023-12-31T19:10:12.163Z,99154.00
2023-12-31T19:12:41.014Z,99153.00
2023-12-31T19:15:10.693Z,99158.00
2023-12-31T19:17:41.084Z,99170.00
2023-12-31T19:20:12.920Z,99174.00
2023-12-31T19:22:42.360Z,99178.00
2023-12-31T19:25:12.028Z,99184.00
2023-12-31T19:27:40.872Z,99189.00
2023-12-31T19:30:10.827Z,99203.00
2023-12-31T19:32:45.422Z,99196.00
2023-12-31T19:35:15.275Z,99203.00
2023-12-31T19:37:44.089Z,99204.00
2023-12-31T19:40:14.208Z,99202.00
2023-12-31T19:42:42.961Z,99219.00
2023-12-31T19:45:12.467Z,99213.00
2023-12-31T19:47:43.044Z,99221.00
2023-12-31T19:50:12.250Z,99212.00
2023-12-31T19:52:42.524Z,99207.00
2023-12-31T19:55:11.436Z,99209.00
2023-12-31T19:57:40.277Z,99223.00
2023-12-31T20:00:10.194Z,99230.00
2023-12-31T20:02:39.167Z,99228.00
2023-12-31T20:05:10.029Z,99228.00
2023-12-31T20:07:39.038Z,99223.00
2023-12-31T20:10:08.633Z,99219.00
2023-12-31T20:12:37.816Z,99220.00
2023-12-31T20:15:07.686Z,99224.00
2023-12-31T20:17:37.396Z,99213.00
2023-12-31T20:20:06.855Z,99224.00
2023-12-31T20:22:37.245Z,99221.00
2023-12-31T20:25:06.736Z,99229.00
2023-12-31T20:27:35.749Z,99216.00
2023-12-31T20:30:05.206Z,99211.00
2023-12-31T20:32:34.067Z,99219.00
2023-12-31T20:35:04.574Z,99220.00
2023-12-31T20:37:34.707Z,99218.00
2023-12-31T20:40:05.738Z,99234.00
2023-12-31T20:42:34.810Z,99236.00
2023-12-31T20:45:03.899Z,99236.00
2023-12-31T20:47:33.045Z,99241.00
2023-12-31T20:50:02.664Z,99244.00
2023-12-31T20:52:31.726Z,99232.00
2023-12-31T20:55:00.498Z,99217.00
2023-12-31T20:57:31.436Z,99220.00
2023-12-31T21:00:00.299Z,99226.00
2023-12-31T21:02:29.355Z,99224.00
2023-12-31T21:04:58.172Z,99226.00
2023-12-31T21:07:27.146Z,99223.00
2023-12-31T21:09:55.967Z,99228.00
2023-12-31T21:12:25.973Z,99233.00
2023-12-31T21:14:56.250Z,99228.00
2023-12-31T21:17:25.096Z,99234.00
2023-12-31T21:19:54.010Z,99232.00
2023-12-31T21:22:22.862Z,99228.00
2023-12-31T21:24:51.670Z,99231.00
2023-12-31T21:27:20.449Z,99236.00
2023-12-31T21:29:49.257Z,99236.00
2023-12-31T21:32:19.588Z,99241.00
2023-12-31T21:34:48.578Z,99241.00
2023-12-31T21:37:17.463Z,99247.00
2023-12-31T21:39:47.016Z,99253.00
2023-12-31T21:42:15.812Z,99257.00
2023-12-31T21:44:44.632Z,99256.00
2023-12-31T21:47:14.636Z,99261.00
2023-12-31T21:49:44.948Z,99260.00
2023-12-31T21:52:13.760Z,99243.00
2023-12-31T21:54:42.593Z,99245.00
2023-12-31T21:57:13.224Z,99251.00
2023-12-31T21:59:42.134Z,99254.00
2023-12-31T22:02:10.976Z,99243.00
2023-12-31T22:04:40.190Z,99246.00
2023-12-31T22:07:10.559Z,99241.00
2023-12-31T22:09:40.307Z,99246.00
2023-12-31T22:12:10.987Z,99249.00
2023-12-31T22:14:39.733Z,99254.00
2023-12-31T22:17:19.260Z,99256.00
2023-12-31T22:19:51.365Z,99268.00
2023-12-31T22:22:21.917Z,99266.00
2023-12-31T22:24:50.712Z,99266.00
2023-12-31T22:27:19.602Z,99270.00
2023-12-31T22:29:49.603Z,99273.00
2023-12-31T22:32:18.357Z,99279.00
2023-12-31T22:34:47.234Z,99273.00
2023-12-31T22:37:16.002Z,99270.00
2023-12-31T22:39:46.104Z,99271.00
2023-12-31T22:42:14.981Z,99275.00
2023-12-31T22:44:43.726Z,99284.00
2023-12-31T22:47:12.492Z,99268.00
2023-12-31T22:49:41.341Z,99258.00
2023-12-31T22:52:11.384Z,99259.00
2023-12-31T22:54:40.291Z,99266.00
2023-12-31T22:57:10.431Z,99277.00
2023-12-31T22:59:42.838Z,99268.00
2023-12-31T23:02:11.674Z,99263.00
2023-12-31T23:04:40.513Z,99262.00
2023-12-31T23:07:09.289Z,99256.00
2023-12-31T23:09:38.027Z,99263.00
2023-12-31T23:12:07.276Z,99254.00
2023-12-31T23:14:37.418Z,99250.00
2023-12-31T23:17:06.409Z,99254.00
2023-12-31T23:19:35.518Z,99247.00
2023-12-31T23:22:04.457Z,99253.00
2023-12-31T23:24:33.206Z,99257.00
2023-12-31T23:27:02.006Z,99250.00
2023-12-31T23:29:30.852Z,99258.00
2023-12-31T23:32:00.967Z,99263.00
2023-12-31T23:34:29.737Z,99257.00
2023-12-31T23:37:05.476Z,99252.00
2023-12-31T23:39:35.548Z,99258.00
2023-12-31T23:42:04.849Z,99245.00
2023-12-31T23:44:33.710Z,99241.00
2023-12-31T23:47:04.476Z,99253.00
2023-12-31T23:49:33.336Z,99247.00
2023-12-31T23:52:02.103Z,99253.00
2023-12-31T23:54:30.826Z,99257.00
2023-12-31T23:56:59.624Z,99256.00
2023-12-31T23:59:28.379Z,99264.00
